createdAt,value
2017-12-23T00:01:10.514Z,33.87
2017-12-23T00:03:36.808Z,40.23
2017-12-23T00:06:03.117Z,38.60
2017-12-23T00:08:29.417Z,36.00
2017-12-23T00:10:56.476Z,39.57
2017-12-23T00:13:23.482Z,34.20
2017-12-23T00:15:49.717Z,36.87
2017-12-23T00:18:15.974Z,32.03
2017-12-23T00:20:42.215Z,31.90
2017-12-23T00:23:08.551Z,32.93
2017-12-23T00:25:34.834Z,34.63
2017-12-23T00:28:01.823Z,34.00
2017-12-23T00:30:28.058Z,34.40
2017-12-23T00:32:54.487Z,32.63
2017-12-23T00:35:20.758Z,33.83
2017-12-23T00:37:47.019Z,35.67
2017-12-23T00:40:13.376Z,33.90
2017-12-23T00:42:39.647Z,35.00
2017-12-23T00:45:05.910Z,35.17
2017-12-23T00:47:32.263Z,45.70
2017-12-23T00:49:58.498Z,40.20
2017-12-23T00:52:24.745Z,48.50
2017-12-23T00:54:51.026Z,50.43
2017-12-23T00:57:17.287Z,41.27
2017-12-23T00:59:43.592Z,37.50
2017-12-23T01:02:09.883Z,41.63
2017-12-23T01:04:36.124Z,40.70
2017-12-23T01:07:03.186Z,40.90
2017-12-23T01:09:29.472Z,35.17
2017-12-23T01:11:55.710Z,42.87
2017-12-23T01:14:22.696Z,34.27
2017-12-23T01:16:48.950Z,35.20
2017-12-23T01:19:15.199Z,36.90
2017-12-23T01:21:41.479Z,40.60
2017-12-23T01:24:07.751Z,43.60
2017-12-23T01:26:34.100Z,46.53
2017-12-23T01:29:00.856Z,54.57
2017-12-23T01:31:27.139Z,74.03
2017-12-23T01:33:53.741Z,84.90
2017-12-23T01:36:19.982Z,97.83
2017-12-23T01:38:46.252Z,213.27
2017-12-23T01:41:12.528Z,211.10
2017-12-23T01:43:39.569Z,176.67
2017-12-23T01:46:05.865Z,192.90
2017-12-23T01:48:33.185Z,261.83
2017-12-23T01:50:59.425Z,223.30
2017-12-23T01:53:26.636Z,180.80
2017-12-23T01:55:52.887Z,104.23
2017-12-23T01:58:19.139Z,79.13
2017-12-23T02:00:45.428Z,84.63
2017-12-23T02:03:11.808Z,144.73
2017-12-23T02:05:38.135Z,104.83
2017-12-23T02:08:04.405Z,103.43
2017-12-23T02:10:30.893Z,102.40
2017-12-23T02:12:57.146Z,90.80
2017-12-23T02:15:24.166Z,97.07
2017-12-23T02:17:50.472Z,118.97
2017-12-23T02:20:16.730Z,155.17
2017-12-23T02:22:43.002Z,57.90
2017-12-23T02:25:09.251Z,99.53
2017-12-23T02:27:35.735Z,85.67
2017-12-23T02:30:03.622Z,92.13
2017-12-23T02:35:04.326Z,48.87
2017-12-23T02:37:30.595Z,86.17
2017-12-23T02:39:57.632Z,63.73
2017-12-23T02:42:24.732Z,62.73
2017-12-23T02:44:51.032Z,62.77
2017-12-23T02:47:17.353Z,84.53
2017-12-23T02:49:43.644Z,37.20
2017-12-23T02:52:09.882Z,32.20
2017-12-23T02:54:36.195Z,32.13
2017-12-23T02:57:02.478Z,30.93
2017-12-23T02:59:28.726Z,35.20
2017-12-23T03:01:54.978Z,23.73
2017-12-23T03:04:28.179Z,23.97
2017-12-23T03:06:54.435Z,21.00
2017-12-23T03:09:21.418Z,23.30
2017-12-23T03:11:47.687Z,24.17
2017-12-23T03:14:14.250Z,22.67
2017-12-23T03:16:41.300Z,25.77
2017-12-23T03:19:07.571Z,29.53
2017-12-23T03:21:33.812Z,18.77
2017-12-23T03:24:00.050Z,20.90
2017-12-23T03:26:26.433Z,16.67
2017-12-23T03:28:52.686Z,17.87
2017-12-23T03:31:18.961Z,16.87
2017-12-23T03:33:45.404Z,17.00
2017-12-23T03:36:11.662Z,16.37
2017-12-23T03:38:37.895Z,14.00
2017-12-23T03:41:04.217Z,12.93
2017-12-23T03:43:30.472Z,12.40
2017-12-23T03:45:56.710Z,11.93
2017-12-23T03:48:23.072Z,14.00
2017-12-23T03:50:49.371Z,11.27
2017-12-23T03:53:16.461Z,14.47
2017-12-23T03:55:43.582Z,13.23
2017-12-23T03:58:09.903Z,16.00
2017-12-23T04:00:36.156Z,18.60
2017-12-23T04:03:03.584Z,16.90
2017-12-23T04:05:29.921Z,12.27
2017-12-23T04:07:56.178Z,14.90
2017-12-23T04:10:22.781Z,16.53
2017-12-23T04:12:49.071Z,15.60
2017-12-23T04:15:15.318Z,15.83
2017-12-23T04:17:42.347Z,15.33
2017-12-23T04:20:08.587Z,14.07
2017-12-23T04:22:34.817Z,17.07
2017-12-23T04:25:01.835Z,14.27
2017-12-23T04:27:28.070Z,14.07
2017-12-23T04:29:54.365Z,12.60
2017-12-23T04:32:20.630Z,14.87
2017-12-23T04:34:46.882Z,15.23
2017-12-23T04:37:13.859Z,17.10
2017-12-23T04:39:40.166Z,16.90
2017-12-23T04:42:07.047Z,17.80
2017-12-23T04:44:33.290Z,16.00
2017-12-23T04:46:59.611Z,13.43
2017-12-23T04:49:25.891Z,16.57
2017-12-23T04:51:52.318Z,13.53
2017-12-23T04:54:18.663Z,15.20
2017-12-23T04:56:44.960Z,17.40
2017-12-23T04:59:11.948Z,13.87
2017-12-23T05:01:38.227Z,13.27
2017-12-23T05:04:05.216Z,14.10
2017-12-23T05:06:31.542Z,13.97
2017-12-23T05:08:57.854Z,13.23
2017-12-23T05:11:24.139Z,15.37
2017-12-23T05:13:51.928Z,14.13
2017-12-23T05:16:18.955Z,15.83
2017-12-23T05:18:45.855Z,14.33
2017-12-23T05:21:12.135Z,14.60
2017-12-23T05:23:39.162Z,15.53
2017-12-23T05:26:06.272Z,16.10
2017-12-23T05:28:32.511Z,14.03
2017-12-23T05:30:58.778Z,13.40
2017-12-23T05:33:25.815Z,22.33
2017-12-23T05:35:52.205Z,13.93
2017-12-23T05:38:18.532Z,14.47
2017-12-23T05:40:44.770Z,17.70
2017-12-23T05:43:11.059Z,16.70
2017-12-23T05:45:37.373Z,12.63
2017-12-23T05:48:04.400Z,13.33
2017-12-23T05:50:30.704Z,15.53
2017-12-23T05:52:57.056Z,14.63
2017-12-23T05:55:24.046Z,16.13
2017-12-23T05:57:50.293Z,16.93
2017-12-23T06:00:16.568Z,15.93
2017-12-23T06:02:43.600Z,12.00
2017-12-23T06:05:09.850Z,17.43
2017-12-23T06:07:36.924Z,17.00
2017-12-23T06:10:03.243Z,16.13
2017-12-23T06:12:29.599Z,12.90
2017-12-23T06:14:55.937Z,12.70
2017-12-23T06:17:22.196Z,12.77
2017-12-23T06:19:48.586Z,14.17
2017-12-23T06:22:14.856Z,14.50
2017-12-23T06:24:41.105Z,12.13
2017-12-23T06:27:08.098Z,14.47
2017-12-23T06:29:34.420Z,13.63
2017-12-23T06:32:00.681Z,11.90
2017-12-23T06:34:26.923Z,9.63
2017-12-23T06:36:53.188Z,10.53
2017-12-23T06:39:19.441Z,9.80
2017-12-23T06:41:45.695Z,11.00
2017-12-23T06:44:12.029Z,13.10
2017-12-23T06:46:39.015Z,11.40
2017-12-23T06:49:05.270Z,11.90
2017-12-23T06:51:31.533Z,13.00
2017-12-23T06:53:57.806Z,11.47
2017-12-23T06:56:24.218Z,10.37
2017-12-23T06:58:50.482Z,12.47
2017-12-23T07:01:16.726Z,14.00
2017-12-23T07:03:42.970Z,13.13
2017-12-23T07:06:09.265Z,19.73
2017-12-23T07:08:35.494Z,12.90
2017-12-23T07:11:01.812Z,13.37
2017-12-23T07:13:28.098Z,11.20
2017-12-23T07:15:54.399Z,11.60
2017-12-23T07:18:20.704Z,15.33
2017-12-23T07:20:47.007Z,12.37
2017-12-23T07:23:13.242Z,16.13
2017-12-23T07:25:39.491Z,17.33
2017-12-23T07:28:05.759Z,15.77
2017-12-23T07:30:32.754Z,17.43
2017-12-23T07:32:58.986Z,18.40
2017-12-23T07:35:25.392Z,15.17
2017-12-23T07:37:51.671Z,18.13
2017-12-23T07:40:17.906Z,13.03
2017-12-23T07:42:44.166Z,16.70
2017-12-23T07:45:11.228Z,17.83
2017-12-23T07:47:37.750Z,17.83
2017-12-23T07:50:04.022Z,16.00
2017-12-23T07:52:30.278Z,16.70
2017-12-23T07:54:56.662Z,20.23
2017-12-23T07:57:22.982Z,19.23
2017-12-23T07:59:49.228Z,17.10
2017-12-23T08:02:15.470Z,16.87
2017-12-23T08:04:41.729Z,18.47
2017-12-23T08:07:08.710Z,16.90
2017-12-23T08:09:35.004Z,16.27
2017-12-23T08:12:02.044Z,17.57
2017-12-23T08:14:28.286Z,17.33
2017-12-23T08:16:55.291Z,18.07
2017-12-23T08:19:21.576Z,17.77
2017-12-23T08:21:47.832Z,17.70
2017-12-23T08:24:14.094Z,16.27
2017-12-23T08:26:41.836Z,19.07
2017-12-23T08:29:08.123Z,15.70
2017-12-23T08:31:34.368Z,17.03
2017-12-23T08:34:00.631Z,17.83
2017-12-23T08:36:26.880Z,14.70
2017-12-23T08:38:54.940Z,17.30
2017-12-23T08:41:21.996Z,18.10
2017-12-23T08:43:48.982Z,24.70
2017-12-23T08:46:15.315Z,17.07
2017-12-23T08:48:41.592Z,14.60
2017-12-23T08:51:07.890Z,16.37
2017-12-23T08:53:34.212Z,15.23
2017-12-23T08:56:00.504Z,15.50
2017-12-23T08:58:26.737Z,18.93
2017-12-23T09:00:52.987Z,14.70
2017-12-23T09:03:19.307Z,15.80
2017-12-23T09:05:45.561Z,12.60
2017-12-23T09:08:11.797Z,13.17
2017-12-23T09:10:38.122Z,14.80
2017-12-23T09:13:04.379Z,14.37
2017-12-23T09:15:31.401Z,12.90
2017-12-23T09:17:58.536Z,14.03
2017-12-23T09:23:18.109Z,16.30
2017-12-23T09:25:44.378Z,13.73
2017-12-23T09:28:12.100Z,15.13
2017-12-23T09:30:38.393Z,16.20
2017-12-23T09:33:05.407Z,17.53
2017-12-23T09:35:31.854Z,12.67
2017-12-23T09:37:58.944Z,13.60
2017-12-23T09:40:25.246Z,21.10
2017-12-23T09:42:51.610Z,13.90
2017-12-23T09:45:17.892Z,11.20
2017-12-23T09:47:48.025Z,12.67
2017-12-23T09:50:15.031Z,11.43
2017-12-23T09:52:42.588Z,14.77
2017-12-23T09:55:09.589Z,11.47
2017-12-23T09:57:35.909Z,9.90
2017-12-23T10:00:02.511Z,10.80
2017-12-23T10:02:28.822Z,9.30
2017-12-23T10:04:56.222Z,13.90
2017-12-23T10:07:22.662Z,10.70
2017-12-23T10:09:48.923Z,10.17
2017-12-23T10:12:15.164Z,9.23
2017-12-23T10:14:41.429Z,8.00
2017-12-23T10:17:07.705Z,10.30
2017-12-23T10:19:33.954Z,8.97
2017-12-23T10:22:00.226Z,7.83
2017-12-23T10:24:26.544Z,16.70
2017-12-23T10:26:53.558Z,7.80
2017-12-23T10:29:19.908Z,8.10
2017-12-23T10:31:46.902Z,8.67
2017-12-23T10:34:13.321Z,11.50
2017-12-23T10:36:39.644Z,9.17
2017-12-23T10:39:05.846Z,10.53
2017-12-23T10:41:32.914Z,11.63
2017-12-23T10:43:59.236Z,9.93
2017-12-23T10:46:26.227Z,8.27
2017-12-23T10:48:52.546Z,9.87
2017-12-23T10:51:18.834Z,11.70
2017-12-23T10:53:45.867Z,10.50
2017-12-23T10:56:12.870Z,10.90
2017-12-23T10:58:39.225Z,10.27
2017-12-23T11:01:06.296Z,12.47
2017-12-23T11:03:33.289Z,11.00
2017-12-23T11:05:59.610Z,10.13
2017-12-23T11:08:26.692Z,12.33
2017-12-23T11:10:54.077Z,11.20
2017-12-23T11:13:21.787Z,9.40
2017-12-23T11:15:48.051Z,10.03
2017-12-23T11:18:14.901Z,13.00
2017-12-23T11:20:42.269Z,13.03
2017-12-23T11:23:08.511Z,11.27
2017-12-23T11:25:34.799Z,10.30
2017-12-23T11:28:01.785Z,9.70
2017-12-23T11:30:28.080Z,13.70
2017-12-23T11:32:55.062Z,13.07
2017-12-23T11:35:21.322Z,10.20
2017-12-23T11:37:47.622Z,11.80
2017-12-23T11:40:13.908Z,12.57
2017-12-23T11:42:41.005Z,11.37
2017-12-23T11:45:07.244Z,10.90
2017-12-23T11:47:33.490Z,12.40
2017-12-23T11:49:59.772Z,11.10
2017-12-23T11:52:26.835Z,11.30
2017-12-23T11:54:53.116Z,11.97
2017-12-23T11:57:20.193Z,13.90
2017-12-23T11:59:46.492Z,14.20
2017-12-23T12:02:13.216Z,14.80
2017-12-23T12:04:39.755Z,11.53
2017-12-23T12:07:06.588Z,12.67
2017-12-23T12:09:32.903Z,11.30
2017-12-23T12:11:59.250Z,11.57
2017-12-23T12:14:25.548Z,13.83
2017-12-23T12:16:51.791Z,10.47
2017-12-23T12:19:18.055Z,13.67
2017-12-23T12:21:45.053Z,13.83
2017-12-23T12:24:11.296Z,15.15
2017-12-23T12:26:37.562Z,11.60
2017-12-23T12:29:03.854Z,11.30
2017-12-23T12:31:30.116Z,12.83
2017-12-23T12:33:57.519Z,12.20
2017-12-23T12:36:24.107Z,14.00
2017-12-23T12:38:50.358Z,15.30
2017-12-23T12:41:16.690Z,13.67
2017-12-23T12:43:43.021Z,10.97
2017-12-23T12:46:09.328Z,11.27
2017-12-23T12:48:35.604Z,12.73
2017-12-23T12:51:01.852Z,10.97
2017-12-23T12:53:28.127Z,11.17
2017-12-23T12:55:54.495Z,10.90
2017-12-23T12:58:20.766Z,11.87
2017-12-23T13:00:47.006Z,10.87
2017-12-23T13:03:13.318Z,15.07
2017-12-23T13:05:39.576Z,17.13
2017-12-23T13:08:06.415Z,15.30
2017-12-23T13:10:32.708Z,10.50
2017-12-23T13:12:59.732Z,11.90
2017-12-23T13:15:26.041Z,11.83
2017-12-23T13:17:52.696Z,10.40
2017-12-23T13:20:20.882Z,12.93
2017-12-23T13:22:47.956Z,14.50
2017-12-23T13:25:14.239Z,9.80
2017-12-23T13:27:40.492Z,10.27
2017-12-23T13:30:07.476Z,9.20
2017-12-23T13:32:33.844Z,11.77
2017-12-23T13:35:00.194Z,13.57
2017-12-23T13:37:27.199Z,9.90
2017-12-23T13:39:53.499Z,11.33
2017-12-23T13:42:19.769Z,12.30
2017-12-23T13:44:46.115Z,13.23
2017-12-23T13:47:12.461Z,12.73
2017-12-23T13:49:38.844Z,11.07
2017-12-23T13:52:05.868Z,13.73
2017-12-23T13:54:32.197Z,12.50
2017-12-23T13:56:58.445Z,10.40
2017-12-23T13:59:24.750Z,11.50
2017-12-23T14:01:51.025Z,15.53
2017-12-23T14:04:17.345Z,9.90
2017-12-23T14:06:43.591Z,10.47
2017-12-23T14:09:09.876Z,10.80
2017-12-23T14:11:36.130Z,11.20
2017-12-23T14:14:09.467Z,10.13
2017-12-23T14:16:35.780Z,8.90
2017-12-23T14:19:02.782Z,7.27
2017-12-23T14:21:29.151Z,9.30
2017-12-23T14:23:56.141Z,7.43
2017-12-23T14:26:22.420Z,8.77
2017-12-23T14:28:49.448Z,8.50
2017-12-23T14:31:15.747Z,7.90
2017-12-23T14:33:42.011Z,8.67
2017-12-23T14:36:08.337Z,7.30
2017-12-23T14:38:34.596Z,7.70
2017-12-23T14:41:01.607Z,5.90
2017-12-23T14:43:28.680Z,7.53
2017-12-23T14:45:55.048Z,9.47
2017-12-23T14:48:21.349Z,7.60
2017-12-23T14:50:47.639Z,6.90
2017-12-23T14:53:13.881Z,6.77
2017-12-23T14:55:41.486Z,6.47
2017-12-23T14:58:07.783Z,6.20
2017-12-23T15:00:34.799Z,6.23
2017-12-23T15:03:01.051Z,7.67
2017-12-23T15:05:28.079Z,8.50
2017-12-23T15:07:55.323Z,6.80
2017-12-23T15:10:21.574Z,8.23
2017-12-23T15:12:48.622Z,6.73
2017-12-23T15:15:15.604Z,10.90
2017-12-23T15:17:41.920Z,24.33
2017-12-23T15:20:08.188Z,7.60
2017-12-23T15:22:35.154Z,7.80
2017-12-23T15:25:02.973Z,8.80
2017-12-23T15:27:29.401Z,12.67
2017-12-23T15:29:55.723Z,8.00
2017-12-23T15:32:22.145Z,8.87
2017-12-23T15:34:48.477Z,8.83
2017-12-23T15:37:14.923Z,7.80
2017-12-23T15:39:41.176Z,12.83
2017-12-23T15:42:07.458Z,9.23
2017-12-23T15:44:34.674Z,8.00
2017-12-23T15:47:01.683Z,9.07
2017-12-23T15:49:28.004Z,7.73
2017-12-23T15:51:54.308Z,9.23
2017-12-23T15:54:20.568Z,8.83
2017-12-23T15:56:47.377Z,7.80
2017-12-23T15:59:13.611Z,10.20
2017-12-23T16:01:39.870Z,8.60
2017-12-23T16:04:06.189Z,8.33
2017-12-23T16:06:32.440Z,10.60
2017-12-23T16:08:58.740Z,7.20
2017-12-23T16:11:26.040Z,8.60
2017-12-23T16:13:52.645Z,8.47
2017-12-23T16:16:18.912Z,7.83
2017-12-23T16:18:46.655Z,9.43
2017-12-23T16:21:12.893Z,10.23
2017-12-23T16:23:39.142Z,8.67
2017-12-23T16:26:06.159Z,9.23
2017-12-23T16:28:32.459Z,7.37
2017-12-23T16:30:58.712Z,5.70
2017-12-23T16:33:25.058Z,7.93
2017-12-23T16:35:52.050Z,8.23
2017-12-23T16:38:18.290Z,9.10
2017-12-23T16:40:44.578Z,7.70
2017-12-23T16:43:10.931Z,6.87
2017-12-23T16:45:37.183Z,6.57
2017-12-23T16:48:03.451Z,8.97
2017-12-23T16:50:30.503Z,10.17
2017-12-23T16:52:57.479Z,7.87
2017-12-23T16:55:23.791Z,5.17
2017-12-23T16:57:50.050Z,8.80
2017-12-23T17:00:16.362Z,8.17
2017-12-23T17:02:42.682Z,6.10
2017-12-23T17:05:08.996Z,8.87
2017-12-23T17:07:35.354Z,5.77
2017-12-23T17:10:02.542Z,6.10
2017-12-23T17:12:28.796Z,6.00
2017-12-23T17:14:55.875Z,4.63
2017-12-23T17:17:22.281Z,5.20
2017-12-23T17:19:48.594Z,5.00
2017-12-23T17:22:15.669Z,4.40
2017-12-23T17:24:42.113Z,5.60
2017-12-23T17:27:08.443Z,7.40
2017-12-23T17:29:46.993Z,4.77
2017-12-23T17:32:13.340Z,5.20
2017-12-23T17:34:40.427Z,4.20
2017-12-23T17:37:06.695Z,5.27
2017-12-23T17:39:32.959Z,4.70
2017-12-23T17:41:59.943Z,4.70
2017-12-23T17:44:26.235Z,6.30
2017-12-23T17:46:53.390Z,5.87
2017-12-23T17:49:19.851Z,5.40
2017-12-23T17:51:46.164Z,7.37
2017-12-23T17:54:12.557Z,4.97
2017-12-23T17:56:39.568Z,5.40
2017-12-23T17:59:05.850Z,4.37
2017-12-23T18:01:32.097Z,4.30
2017-12-23T18:03:58.348Z,4.60
2017-12-23T18:06:24.663Z,5.50
2017-12-23T18:08:50.911Z,4.87
2017-12-23T18:11:17.229Z,3.73
2017-12-23T18:13:44.161Z,5.07
2017-12-23T18:16:11.166Z,4.10
2017-12-23T18:18:38.168Z,5.10
2017-12-23T18:21:04.516Z,4.17
2017-12-23T18:23:30.786Z,4.60
2017-12-23T18:25:58.602Z,7.20
2017-12-23T18:28:25.420Z,4.17
2017-12-23T18:30:51.668Z,5.53
2017-12-23T18:33:17.929Z,5.80
2017-12-23T18:35:44.944Z,4.23
2017-12-23T18:38:11.241Z,4.33
2017-12-23T18:40:37.755Z,3.50
2017-12-23T18:43:04.025Z,6.07
2017-12-23T18:45:30.299Z,4.87
2017-12-23T18:48:04.571Z,4.17
2017-12-23T18:50:30.843Z,4.33
2017-12-23T18:52:57.963Z,3.47
2017-12-23T18:55:24.921Z,8.63
2017-12-23T18:57:51.967Z,9.10
2017-12-23T19:00:19.035Z,4.20
2017-12-23T19:02:45.360Z,3.17
2017-12-23T19:05:11.798Z,4.63
2017-12-23T19:07:38.140Z,3.13
2017-12-23T19:10:04.567Z,3.70
2017-12-23T19:12:34.474Z,2.87
2017-12-23T19:15:01.720Z,5.83
2017-12-23T19:17:28.014Z,3.60
2017-12-23T19:19:54.292Z,3.43
2017-12-23T19:22:21.242Z,3.80
2017-12-23T19:24:47.624Z,8.53
2017-12-23T19:27:13.935Z,4.23
2017-12-23T19:29:40.223Z,3.50
2017-12-23T19:32:06.690Z,5.57
2017-12-23T19:34:41.392Z,4.07
2017-12-23T19:37:08.608Z,5.83
2017-12-23T19:39:35.592Z,4.30
2017-12-23T19:42:01.911Z,4.17
2017-12-23T19:44:28.323Z,4.50
2017-12-23T19:46:54.588Z,5.10
2017-12-23T19:49:20.859Z,4.43
2017-12-23T19:51:47.910Z,3.87
2017-12-23T19:54:14.956Z,3.10
2017-12-23T19:56:41.991Z,7.27
2017-12-23T19:59:09.047Z,3.70
2017-12-23T20:01:35.492Z,4.03
2017-12-23T20:04:02.868Z,5.60
2017-12-23T20:06:29.162Z,5.10
2017-12-23T20:08:56.248Z,3.80
2017-12-23T20:11:22.606Z,4.80
2017-12-23T20:13:48.955Z,3.90
2017-12-23T20:16:15.969Z,4.40
2017-12-23T20:18:42.387Z,3.83
2017-12-23T20:21:08.854Z,4.17
2017-12-23T20:23:35.218Z,9.87
2017-12-23T20:26:01.650Z,5.40
2017-12-23T20:28:28.115Z,3.37
2017-12-23T20:30:56.539Z,3.30
2017-12-23T20:33:23.608Z,3.70
2017-12-23T20:35:49.956Z,3.77
2017-12-23T20:38:16.364Z,3.77
2017-12-23T20:40:42.747Z,5.47
2017-12-23T20:43:09.048Z,3.57
2017-12-23T20:45:35.367Z,10.30
2017-12-23T20:48:01.629Z,3.37
2017-12-23T20:50:28.939Z,4.47
2017-12-23T20:52:55.223Z,4.13
2017-12-23T20:55:21.560Z,4.00
2017-12-23T20:57:47.866Z,3.40
2017-12-23T21:00:14.124Z,5.73
2017-12-23T21:02:41.142Z,3.27
2017-12-23T21:05:07.423Z,4.30
2017-12-23T21:07:33.691Z,3.37
2017-12-23T21:10:00.108Z,8.00
2017-12-23T21:12:27.351Z,4.53
2017-12-23T21:14:53.616Z,4.40
2017-12-23T21:17:19.891Z,6.60
2017-12-23T21:19:46.248Z,4.97
2017-12-23T21:22:12.575Z,3.70
2017-12-23T21:24:38.842Z,4.17
2017-12-23T21:27:05.101Z,5.30
2017-12-23T21:29:31.364Z,6.93
2017-12-23T21:31:57.686Z,3.57
2017-12-23T21:34:23.979Z,7.73
2017-12-23T21:36:51.077Z,4.00
2017-12-23T21:39:17.493Z,4.30
2017-12-23T21:41:43.925Z,3.07
2017-12-23T21:44:10.181Z,4.13
2017-12-23T21:46:36.427Z,5.07
2017-12-23T21:49:02.709Z,3.97
2017-12-23T21:51:29.024Z,3.30
2017-12-23T21:53:55.321Z,5.53
2017-12-23T21:56:22.420Z,5.13
2017-12-23T21:58:49.026Z,5.83
2017-12-23T22:01:15.279Z,3.47
2017-12-23T22:03:41.707Z,3.70
2017-12-23T22:06:09.243Z,4.60
2017-12-23T22:08:35.711Z,5.17
2017-12-23T22:11:02.022Z,2.53
2017-12-23T22:13:28.358Z,3.37
2017-12-23T22:15:54.664Z,3.30
2017-12-23T22:18:30.247Z,3.47
2017-12-23T22:20:56.544Z,4.43
2017-12-23T22:23:23.069Z,4.60
2017-12-23T22:25:49.405Z,3.30
2017-12-23T22:28:15.739Z,3.03
2017-12-23T22:30:43.077Z,2.80
2017-12-23T22:33:09.444Z,3.43
2017-12-23T22:35:35.708Z,3.17
2017-12-23T22:38:02.757Z,3.37
2017-12-23T22:40:29.334Z,3.03
2017-12-23T22:42:55.750Z,4.00
2017-12-23T22:45:22.097Z,2.10
2017-12-23T22:47:48.387Z,2.97
2017-12-23T22:50:15.481Z,3.80
2017-12-23T22:52:41.921Z,3.13
2017-12-23T22:55:09.495Z,2.87
2017-12-23T22:57:35.863Z,3.87
2017-12-23T23:00:02.904Z,3.73
2017-12-23T23:02:29.924Z,6.40
2017-12-23T23:04:56.229Z,3.00
2017-12-23T23:07:22.523Z,5.33
2017-12-23T23:09:48.960Z,3.47
2017-12-23T23:12:15.250Z,3.43
2017-12-23T23:14:41.516Z,2.67
2017-12-23T23:17:07.809Z,3.33
2017-12-23T23:19:34.918Z,2.60
2017-12-23T23:22:01.179Z,4.13
2017-12-23T23:24:27.495Z,6.70
2017-12-23T23:26:53.751Z,2.53
2017-12-23T23:29:20.742Z,2.73
2017-12-23T23:31:47.062Z,3.37
2017-12-23T23:34:13.397Z,2.80
2017-12-23T23:36:39.664Z,2.50
2017-12-23T23:39:05.967Z,2.40
2017-12-23T23:41:32.233Z,2.77
2017-12-23T23:43:58.507Z,3.00
2017-12-23T23:46:24.783Z,2.63
2017-12-23T23:48:51.040Z,2.20
2017-12-23T23:51:17.398Z,3.33
2017-12-23T23:53:44.348Z,2.70
2017-12-23T23:56:10.604Z,2.90
2017-12-23T23:58:37.612Z,4.40
